Time;durP1;ratioP1;P1;durP2;ratioP2;P2;SDS_P1;SDS_P2;PMS_P1;PMS_P2;Temp;Humidity;BMP_temperature;BMP_pressure;BME280_temperature;BME280_humidity;BME280_pressure;Samples;Min_cycle;Max_cycle;Signal;HPM_P1;HPM_P2
2023/03/14 00:00:26;;;;;;;5.68;1.30;;;;;;;;;;5008602;28;20038;-57
2023/03/14 00:02:53;;;;;;;5.72;1.08;;;;;;;;;;4999330;28;20038;-57
2023/03/14 00:05:19;;;;;;;1.98;0.82;;;;;;;;;;5008408;28;20034;-57
2023/03/14 00:07:44;;;;;;;2.58;0.82;;;;;;;;;;5008995;28;20039;-57
2023/03/14 00:10:13;;;;;;;6.53;1.27;;;;;;;;;;5008327;28;20182;-56
2023/03/14 00:12:39;;;;;;;8.35;1.00;;;;;;;;;;5008694;28;20022;-57
2023/03/14 00:15:06;;;;;;;5.80;1.00;;;;;;;;;;5008529;28;20033;-57
2023/03/14 00:17:32;;;;;;;4.20;0.75;;;;;;;;;;5007897;28;20057;-57
2023/03/14 00:20:03;;;;;;;5.95;1.00;;;;;;;;;;5004862;28;20384;-57
2023/03/14 00:22:30;;;;;;;3.47;1.00;;;;;;;;;;5008319;28;20110;-57
2023/03/14 00:24:55;;;;;;;6.38;1.27;;;;;;;;;;5008942;28;20018;-57
2023/03/14 00:27:20;;;;;;;6.05;1.13;;;;;;;;;;5007339;28;20061;-57
2023/03/14 00:29:45;;;;;;;6.43;0.80;;;;;;;;;;5008195;28;20038;-57
2023/03/14 00:32:11;;;;;;;4.00;1.00;;;;;;;;;;5007627;28;20040;-57
2023/03/14 00:34:36;;;;;;;6.97;1.23;;;;;;;;;;5008384;28;20515;-57
2023/03/14 00:37:01;;;;;;;6.35;0.95;;;;;;;;;;5008389;28;20593;-57
2023/03/14 00:39:27;;;;;;;6.00;0.98;;;;;;;;;;5006304;28;20065;-57
2023/03/14 00:41:52;;;;;;;7.60;1.70;;;;;;;;;;5008644;28;20030;-57
2023/03/14 00:44:17;;;;;;;4.97;1.38;;;;;;;;;;5007670;28;20450;-57
2023/03/14 00:46:43;;;;;;;1.95;0.90;;;;;;;;;;5007458;28;20563;-57
2023/03/14 00:49:08;;;;;;;6.68;1.10;;;;;;;;;;5008860;28;20026;-57
2023/03/14 00:51:33;;;;;;;10.13;1.20;;;;;;;;;;5006821;28;20033;-57
2023/03/14 00:53:59;;;;;;;5.25;1.25;;;;;;;;;;4998617;28;20409;-57
2023/03/14 00:56:25;;;;;;;6.45;1.40;;;;;;;;;;5003952;28;20577;-57
2023/03/14 00:58:53;;;;;;;8.13;1.40;;;;;;;;;;5008194;28;20029;-57
2023/03/14 01:01:19;;;;;;;5.03;1.50;;;;;;;;;;5008033;28;20034;-57
2023/03/14 01:03:45;;;;;;;7.25;0.80;;;;;;;;;;4997270;28;20018;-57
2023/03/14 01:06:19;;;;;;;11.15;1.20;;;;;;;;;;5006936;28;20057;-57
2023/03/14 01:08:45;;;;;;;4.60;1.00;;;;;;;;;;5007567;28;20038;-57
2023/03/14 01:11:34;;;;;;;4.93;1.15;;;;;;;;;;5005039;28;20419;-57
2023/03/14 01:14:00;;;;;;;2.95;0.80;;;;;;;;;;5001194;28;20085;-57
2023/03/14 01:16:27;;;;;;;5.45;0.85;;;;;;;;;;5000275;28;20081;-58
2023/03/14 01:18:52;;;;;;;5.88;1.20;;;;;;;;;;5002919;28;20038;-57
2023/03/14 01:21:22;;;;;;;5.70;0.90;;;;;;;;;;5006447;28;20417;-57
2023/03/14 01:23:48;;;;;;;4.35;0.95;;;;;;;;;;5007614;28;20542;-56
2023/03/14 01:26:18;;;;;;;7.60;1.35;;;;;;;;;;5007034;28;20420;-57
2023/03/14 01:28:44;;;;;;;6.20;1.40;;;;;;;;;;5006953;28;20038;-57
2023/03/14 01:31:10;;;;;;;4.28;0.90;;;;;;;;;;5007598;28;20097;-54
2023/03/14 01:33:36;;;;;;;4.78;1.00;;;;;;;;;;5004103;28;20084;-57
2023/03/14 01:36:02;;;;;;;2.10;1.00;;;;;;;;;;5000499;28;20025;-57
2023/03/14 01:38:31;;;;;;;5.18;1.33;;;;;;;;;;5001209;28;20034;-57
2023/03/14 01:40:57;;;;;;;3.40;0.75;;;;;;;;;;5006670;28;20194;-57
2023/03/14 01:43:24;;;;;;;4.85;0.68;;;;;;;;;;5006861;28;20492;-56
2023/03/14 01:46:33;;;;;;;4.10;0.82;;;;;;;;;;5007267;28;20068;-57
2023/03/14 01:49:26;;;;;;;6.53;1.10;;;;;;;;;;4997990;28;20128;-57
2023/03/14 01:51:55;;;;;;;3.15;1.10;;;;;;;;;;5004999;28;20034;-57
2023/03/14 01:54:28;;;;;;;4.68;1.08;;;;;;;;;;5004013;28;20550;-57
2023/03/14 01:57:17;;;;;;;5.60;1.30;;;;;;;;;;5006586;28;20037;-57
2023/03/14 01:59:47;;;;;;;7.90;1.40;;;;;;;;;;5005015;28;20099;-57
2023/03/14 02:02:14;;;;;;;6.72;1.40;;;;;;;;;;5002230;28;20033;-57
2023/03/14 02:04:40;;;;;;;6.45;1.48;;;;;;;;;;5006104;28;20026;-57
2023/03/14 02:07:15;;;;;;;11.90;1.42;;;;;;;;;;5007270;28;20539;-57
2023/03/14 02:09:41;;;;;;;6.05;1.67;;;;;;;;;;5006577;28;20042;-57
2023/03/14 02:12:09;;;;;;;3.65;1.13;;;;;;;;;;4998204;28;20038;-57
2023/03/14 02:14:36;;;;;;;6.35;1.13;;;;;;;;;;5005946;28;20529;-56
2023/03/14 02:17:05;;;;;;;6.32;1.23;;;;;;;;;;5006119;28;20040;-57
2023/03/14 02:19:40;;;;;;;10.38;1.38;;;;;;;;;;5006513;28;20114;-57
2023/03/14 02:22:10;;;;;;;9.25;1.95;;;;;;;;;;5005989;28;20052;-57
2023/03/14 02:25:02;;;;;;;4.55;1.67;;;;;;;;;;5006637;28;20124;-60
2023/03/14 02:27:27;;;;;;;5.25;2.30;;;;;;;;;;5006495;28;20033;-57
2023/03/14 02:30:00;;;;;;;4.68;1.25;;;;;;;;;;5005862;28;20030;-57
2023/03/14 02:32:28;;;;;;;3.30;0.90;;;;;;;;;;5005524;28;20040;-57
2023/03/14 02:34:56;;;;;;;2.97;0.90;;;;;;;;;;5006161;28;20026;-57
2023/03/14 02:37:27;;;;;;;7.68;1.60;;;;;;;;;;5003667;28;20030;-57
2023/03/14 02:39:52;;;;;;;6.53;1.70;;;;;;;;;;4997806;28;20022;-57
2023/03/14 02:42:18;;;;;;;4.50;1.00;;;;;;;;;;5005806;28;20026;-57
2023/03/14 02:45:08;;;;;;;2.92;0.75;;;;;;;;;;5005430;28;20511;-57
2023/03/14 02:47:34;;;;;;;5.97;1.05;;;;;;;;;;5004829;28;20084;-57
2023/03/14 02:50:08;;;;;;;7.82;1.10;;;;;;;;;;5006574;28;20121;-57
2023/03/14 02:52:33;;;;;;;10.48;1.27;;;;;;;;;;5005641;28;20172;-57
2023/03/14 02:54:59;;;;;;;3.20;0.88;;;;;;;;;;5005684;28;20096;-57
2023/03/14 02:57:24;;;;;;;3.65;1.20;;;;;;;;;;4998248;28;20037;-57
2023/03/14 02:59:49;;;;;;;6.38;1.08;;;;;;;;;;5005984;28;20095;-57
2023/03/14 03:02:15;;;;;;;5.20;1.10;;;;;;;;;;5006267;28;20107;-57
2023/03/14 03:04:40;;;;;;;3.25;1.00;;;;;;;;;;5001888;28;20029;-57
2023/03/14 03:07:05;;;;;;;7.60;1.55;;;;;;;;;;5005865;28;20119;-58
2023/03/14 03:09:31;;;;;;;6.55;1.45;;;;;;;;;;5004111;28;20400;-57
2023/03/14 03:11:56;;;;;;;6.68;1.25;;;;;;;;;;4999501;28;20112;-57
2023/03/14 03:14:21;;;;;;;4.03;1.17;;;;;;;;;;5005009;28;20030;-57
2023/03/14 03:16:46;;;;;;;10.07;1.75;;;;;;;;;;5005806;28;20037;-57
2023/03/14 03:19:13;;;;;;;5.18;1.00;;;;;;;;;;5001975;28;20037;-57
2023/03/14 03:21:39;;;;;;;6.72;0.90;;;;;;;;;;5006284;28;20021;-57
2023/03/14 03:24:06;;;;;;;2.38;1.05;;;;;;;;;;5001497;28;20148;-57
2023/03/14 03:26:35;;;;;;;5.55;1.50;;;;;;;;;;4996587;28;20045;-57
2023/03/14 03:29:01;;;;;;;5.53;1.70;;;;;;;;;;5002280;28;20046;-57
2023/03/14 03:31:28;;;;;;;6.55;0.95;;;;;;;;;;5004496;28;20477;-57
2023/03/14 03:33:53;;;;;;;5.43;1.30;;;;;;;;;;5006353;28;20025;-57
2023/03/14 03:36:23;;;;;;;4.93;1.10;;;;;;;;;;5005224;28;20446;-57
2023/03/14 03:38:48;;;;;;;4.53;1.25;;;;;;;;;;5007112;28;20045;-57
2023/03/14 03:41:14;;;;;;;2.75;1.05;;;;;;;;;;5008248;28;20431;-57
2023/03/14 03:43:39;;;;;;;5.07;1.27;;;;;;;;;;5009172;28;20034;-57
2023/03/14 03:46:06;;;;;;;1.45;1.00;;;;;;;;;;5008859;28;20108;-57
2023/03/14 03:48:31;;;;;;;2.05;1.10;;;;;;;;;;5008795;28;20057;-57
2023/03/14 03:50:57;;;;;;;3.67;1.00;;;;;;;;;;5008219;28;20127;-57
2023/03/14 03:53:22;;;;;;;3.13;1.00;;;;;;;;;;5000801;28;20037;-57
2023/03/14 03:55:47;;;;;;;4.50;1.20;;;;;;;;;;5008371;28;20049;-57
2023/03/14 03:58:13;;;;;;;5.00;1.40;;;;;;;;;;5007785;28;20033;-57
2023/03/14 04:00:38;;;;;;;5.68;1.17;;;;;;;;;;5007289;28;20429;-57
2023/03/14 04:03:04;;;;;;;3.97;1.50;;;;;;;;;;5003203;28;20046;-57
2023/03/14 04:05:30;;;;;;;5.15;1.23;;;;;;;;;;5007693;28;20650;-57
2023/03/14 04:07:55;;;;;;;4.65;1.35;;;;;;;;;;5008610;28;20042;-57
2023/03/14 04:10:20;;;;;;;2.47;1.50;;;;;;;;;;5002890;28;20037;-57
2023/03/14 04:12:45;;;;;;;5.65;1.70;;;;;;;;;;5007904;28;20407;-57
2023/03/14 04:15:11;;;;;;;6.65;1.50;;;;;;;;;;5008707;28;20411;-57
2023/03/14 04:17:36;;;;;;;6.85;1.38;;;;;;;;;;5007648;28;20151;-57
2023/03/14 04:20:02;;;;;;;5.13;1.40;;;;;;;;;;4995793;28;20043;-57
2023/03/14 04:22:28;;;;;;;4.90;1.30;;;;;;;;;;5003447;28;20061;-57
2023/03/14 04:24:53;;;;;;;3.35;1.60;;;;;;;;;;5007222;28;20177;-57
2023/03/14 04:27:19;;;;;;;2.50;1.02;;;;;;;;;;5008002;28;20034;-57
2023/03/14 04:29:44;;;;;;;2.80;1.17;;;;;;;;;;5008016;28;20038;-57
2023/03/14 04:32:09;;;;;;;3.63;1.27;;;;;;;;;;5006975;28;20077;-57
2023/03/14 04:34:35;;;;;;;5.28;1.10;;;;;;;;;;5006141;28;20034;-57
2023/03/14 04:37:00;;;;;;;1.55;1.00;;;;;;;;;;5008933;28;20160;-57
2023/03/14 04:39:25;;;;;;;4.80;1.73;;;;;;;;;;5007050;28;20064;-57
2023/03/14 04:41:51;;;;;;;4.97;1.63;;;;;;;;;;5001014;28;20037;-57
2023/03/14 04:44:17;;;;;;;2.83;1.55;;;;;;;;;;5007169;28;20132;-57
2023/03/14 04:46:42;;;;;;;3.03;1.42;;;;;;;;;;5007939;28;20038;-57
2023/03/14 04:49:07;;;;;;;4.97;1.48;;;;;;;;;;5005628;28;20075;-56
2023/03/14 04:51:33;;;;;;;3.55;1.50;;;;;;;;;;5006633;28;20091;-57
2023/03/14 04:53:58;;;;;;;5.50;1.98;;;;;;;;;;5007948;28;20061;-57
2023/03/14 04:56:23;;;;;;;4.82;1.83;;;;;;;;;;5006889;28;20598;-57
2023/03/14 04:58:49;;;;;;;8.85;1.92;;;;;;;;;;5007841;28;20109;-57
2023/03/14 05:01:14;;;;;;;4.65;1.45;;;;;;;;;;5007347;28;20045;-57
2023/03/14 05:03:39;;;;;;;6.28;1.90;;;;;;;;;;5007997;28;20092;-57
2023/03/14 05:06:05;;;;;;;7.10;1.65;;;;;;;;;;5005812;28;20408;-57
2023/03/14 05:08:31;;;;;;;3.90;1.75;;;;;;;;;;5006981;28;20045;-57
2023/03/14 05:10:57;;;;;;;4.40;1.60;;;;;;;;;;5007444;28;20038;-57
2023/03/14 05:13:23;;;;;;;3.60;1.77;;;;;;;;;;5005803;28;20033;-57
2023/03/14 05:15:50;;;;;;;3.13;1.40;;;;;;;;;;4994721;28;20101;-57
2023/03/14 05:18:16;;;;;;;1.65;0.93;;;;;;;;;;5007136;28;20053;-57
2023/03/14 05:20:42;;;;;;;3.70;1.40;;;;;;;;;;4996631;28;20415;-57
2023/03/14 05:23:08;;;;;;;2.28;1.10;;;;;;;;;;5005934;28;20034;-57
2023/03/14 05:25:33;;;;;;;3.58;1.75;;;;;;;;;;5007084;28;20580;-57
2023/03/14 05:27:59;;;;;;;3.40;1.60;;;;;;;;;;4999944;28;20408;-57
2023/03/14 05:30:24;;;;;;;4.15;1.77;;;;;;;;;;5006623;28;20140;-57
2023/03/14 05:32:49;;;;;;;4.20;1.60;;;;;;;;;;5006580;28;20080;-57
2023/03/14 05:35:15;;;;;;;3.30;1.52;;;;;;;;;;5006953;28;20038;-57
2023/03/14 05:37:40;;;;;;;4.13;1.67;;;;;;;;;;5006985;28;20519;-57
2023/03/14 05:40:06;;;;;;;2.72;1.70;;;;;;;;;;5006228;28;20037;-57
2023/03/14 05:42:32;;;;;;;4.20;1.83;;;;;;;;;;5005002;28;20037;-57
2023/03/14 05:44:57;;;;;;;4.97;2.00;;;;;;;;;;5005898;28;20045;-57
2023/03/14 05:47:23;;;;;;;5.43;1.80;;;;;;;;;;5006441;28;20038;-57
2023/03/14 05:49:48;;;;;;;5.35;1.85;;;;;;;;;;5007136;28;20030;-57
2023/03/14 05:52:14;;;;;;;4.25;1.80;;;;;;;;;;5005082;28;20558;-57
2023/03/14 05:54:40;;;;;;;2.40;1.40;;;;;;;;;;5005855;28;20032;-57
2023/03/14 05:57:05;;;;;;;3.30;1.63;;;;;;;;;;5006121;28;20100;-57
2023/03/14 05:59:31;;;;;;;2.63;1.52;;;;;;;;;;5006810;28;20038;-57
2023/03/14 06:01:56;;;;;;;6.47;1.80;;;;;;;;;;5004226;28;20034;-57
2023/03/14 06:04:21;;;;;;;4.20;2.08;;;;;;;;;;5004879;28;20029;-57
2023/03/14 06:06:47;;;;;;;4.00;1.42;;;;;;;;;;5005600;28;20791;-57
2023/03/14 06:09:12;;;;;;;3.35;1.75;;;;;;;;;;5002918;28;20037;-57
2023/03/14 06:11:37;;;;;;;2.45;1.40;;;;;;;;;;4986949;28;20103;-57
2023/03/14 06:14:03;;;;;;;4.28;1.90;;;;;;;;;;4999611;28;20037;-57
2023/03/14 06:16:28;;;;;;;4.90;2.00;;;;;;;;;;4993275;28;20527;-57
2023/03/14 06:18:53;;;;;;;5.05;2.05;;;;;;;;;;4993932;28;20038;-57
2023/03/14 06:21:19;;;;;;;10.65;2.00;;;;;;;;;;5004032;28;20568;-57
2023/03/14 06:23:45;;;;;;;6.43;2.17;;;;;;;;;;5006098;28;20116;-58
2023/03/14 06:26:11;;;;;;;4.75;2.20;;;;;;;;;;5006735;28;20451;-58
2023/03/14 06:28:37;;;;;;;5.45;2.55;;;;;;;;;;4997556;28;20058;-57
2023/03/14 06:31:03;;;;;;;1.27;0.90;;;;;;;;;;5007022;28;20049;-57
2023/03/14 06:33:28;;;;;;;2.40;1.67;;;;;;;;;;5005834;28;20572;-57
2023/03/14 06:35:53;;;;;;;6.05;2.17;;;;;;;;;;5005460;28;20529;-57
2023/03/14 06:38:19;;;;;;;4.10;1.85;;;;;;;;;;5006051;28;20685;-57
2023/03/14 06:40:44;;;;;;;3.28;1.60;;;;;;;;;;5004604;28;20037;-57
2023/03/14 06:43:09;;;;;;;3.40;1.75;;;;;;;;;;4994674;28;20461;-57
2023/03/14 06:45:35;;;;;;;4.05;1.35;;;;;;;;;;5003714;28;20042;-57
2023/03/14 06:48:00;;;;;;;2.08;1.40;;;;;;;;;;5005438;28;20642;-57
2023/03/14 06:50:25;;;;;;;3.50;1.52;;;;;;;;;;5005134;28;20042;-57
2023/03/14 06:52:51;;;;;;;2.78;1.70;;;;;;;;;;5005265;28;20057;-57
2023/03/14 06:55:16;;;;;;;4.57;1.63;;;;;;;;;;5004034;28;20056;-57
2023/03/14 06:57:43;;;;;;;4.72;2.40;;;;;;;;;;5006009;28;20018;-57
2023/03/14 07:00:10;;;;;;;6.57;2.33;;;;;;;;;;5004684;28;20033;-57
2023/03/14 07:02:35;;;;;;;5.45;1.45;;;;;;;;;;5000920;28;20446;-57
2023/03/14 07:05:01;;;;;;;3.03;1.40;;;;;;;;;;5003255;28;20562;-56
2023/03/14 07:07:27;;;;;;;3.53;1.70;;;;;;;;;;5004365;28;20026;-57
2023/03/14 07:09:52;;;;;;;7.00;3.10;;;;;;;;;;5004980;28;20057;-56
2023/03/14 07:12:17;;;;;;;8.80;3.58;;;;;;;;;;4997758;28;20054;-57
2023/03/14 07:14:43;;;;;;;4.15;1.65;;;;;;;;;;5007436;28;20045;-57
2023/03/14 07:17:08;;;;;;;2.00;1.25;;;;;;;;;;5008956;28;20042;-57
2023/03/14 07:19:33;;;;;;;5.43;1.38;;;;;;;;;;5005357;28;20503;-57
2023/03/14 07:21:59;;;;;;;3.55;1.63;;;;;;;;;;5005283;28;20033;-57
2023/03/14 07:24:24;;;;;;;3.28;1.67;;;;;;;;;;5008947;28;20037;-57
2023/03/14 07:26:49;;;;;;;6.32;1.85;;;;;;;;;;5007877;28;20180;-56
2023/03/14 07:29:15;;;;;;;3.88;1.80;;;;;;;;;;5000789;28;20033;-57
2023/03/14 07:31:40;;;;;;;8.80;3.67;;;;;;;;;;5008589;28;20029;-57
2023/03/14 07:34:05;;;;;;;10.57;4.80;;;;;;;;;;5008333;28;20092;-57
2023/03/14 07:36:31;;;;;;;12.52;6.22;;;;;;;;;;5008840;28;20131;-57
2023/03/14 07:38:56;;;;;;;9.15;4.28;;;;;;;;;;5005165;28;20033;-57
2023/03/14 07:41:22;;;;;;;11.35;5.65;;;;;;;;;;5004555;28;20029;-57
2023/03/14 07:43:48;;;;;;;10.43;4.50;;;;;;;;;;4993333;28;20423;-57
2023/03/14 07:46:14;;;;;;;10.93;6.00;;;;;;;;;;4994636;28;20513;-57
2023/03/14 07:48:40;;;;;;;10.95;3.45;;;;;;;;;;5010631;28;20032;-57
2023/03/14 07:51:05;;;;;;;8.80;3.78;;;;;;;;;;5003174;28;20036;-57
2023/03/14 07:53:31;;;;;;;12.13;3.60;;;;;;;;;;5008276;28;20038;-57
2023/03/14 07:55:56;;;;;;;11.05;4.70;;;;;;;;;;5005418;28;20558;-57
2023/03/14 07:58:22;;;;;;;8.43;3.85;;;;;;;;;;5005182;28;20491;-57
2023/03/14 08:00:47;;;;;;;11.23;4.72;;;;;;;;;;4997948;28;20028;-57
2023/03/14 08:03:13;;;;;;;11.98;4.72;;;;;;;;;;5006398;28;20065;-58
2023/03/14 08:05:38;;;;;;;18.83;6.88;;;;;;;;;;5007893;28;20119;-57
2023/03/14 08:08:05;;;;;;;13.93;5.43;;;;;;;;;;5006568;28;20053;-57
2023/03/14 08:10:31;;;;;;;15.23;5.95;;;;;;;;;;5004729;28;20042;-57
2023/03/14 08:12:58;;;;;;;14.25;5.38;;;;;;;;;;4998431;28;20492;-57
2023/03/14 08:15:24;;;;;;;11.43;3.80;;;;;;;;;;5002585;28;20034;-57
2023/03/14 08:17:50;;;;;;;13.45;5.53;;;;;;;;;;4997959;28;20124;-57
2023/03/14 08:20:24;;;;;;;7.80;3.25;;;;;;;;;;5000957;28;20038;-57
2023/03/14 08:22:50;;;;;;;12.50;4.72;;;;;;;;;;5001993;28;20113;-57
2023/03/14 08:25:15;;;;;;;9.38;3.70;;;;;;;;;;4998096;28;20030;-58
2023/03/14 08:27:41;;;;;;;7.40;2.88;;;;;;;;;;5006013;28;20021;-57
2023/03/14 08:30:08;;;;;;;9.65;3.10;;;;;;;;;;5007439;28;20041;-57
2023/03/14 08:32:34;;;;;;;10.25;3.80;;;;;;;;;;5006237;28;20038;-57
2023/03/14 08:34:59;;;;;;;8.70;3.65;;;;;;;;;;5006242;28;20403;-57
2023/03/14 08:37:25;;;;;;;6.65;3.13;;;;;;;;;;5008118;28;20029;-57
2023/03/14 08:39:51;;;;;;;5.63;1.95;;;;;;;;;;5006813;28;20116;-56
2023/03/14 08:42:17;;;;;;;12.68;2.78;;;;;;;;;;5006561;28;20030;-57
2023/03/14 08:44:42;;;;;;;8.55;2.97;;;;;;;;;;5006976;28;20462;-56
2023/03/14 08:47:07;;;;;;;2.38;1.25;;;;;;;;;;5007880;28;20076;-56
2023/03/14 08:49:32;;;;;;;3.75;1.75;;;;;;;;;;5007993;28;20032;-56
2023/03/14 08:51:58;;;;;;;3.60;1.33;;;;;;;;;;5008295;28;20037;-57
2023/03/14 08:54:24;;;;;;;6.07;1.92;;;;;;;;;;5005442;28;20515;-57
2023/03/14 08:56:49;;;;;;;6.95;2.35;;;;;;;;;;5007846;28;20066;-57
2023/03/14 08:59:14;;;;;;;6.93;2.53;;;;;;;;;;5006809;28;20451;-57
2023/03/14 09:01:40;;;;;;;3.95;1.90;;;;;;;;;;5007561;28;20033;-57
2023/03/14 09:04:06;;;;;;;6.10;2.50;;;;;;;;;;5005040;28;20050;-57
2023/03/14 09:06:31;;;;;;;3.35;1.92;;;;;;;;;;5006808;28;20037;-57
2023/03/14 09:08:56;;;;;;;6.18;2.03;;;;;;;;;;5007738;28;20038;-57
2023/03/14 09:11:22;;;;;;;4.95;2.08;;;;;;;;;;5006670;28;20068;-57
2023/03/14 09:13:48;;;;;;;3.20;1.50;;;;;;;;;;5007599;28;20044;-57
2023/03/14 09:16:13;;;;;;;3.72;2.38;;;;;;;;;;5001024;28;20491;-56
2023/03/14 09:18:39;;;;;;;3.25;1.58;;;;;;;;;;5000098;28;20078;-57
2023/03/14 09:21:05;;;;;;;6.25;2.67;;;;;;;;;;4997683;28;20034;-57
2023/03/14 09:23:30;;;;;;;5.15;2.78;;;;;;;;;;5001824;28;20042;-56
2023/03/14 09:25:59;;;;;;;7.63;2.72;;;;;;;;;;4996529;28;20615;-57
2023/03/14 09:28:25;;;;;;;7.47;2.72;;;;;;;;;;5007017;28;20483;-57
2023/03/14 09:30:50;;;;;;;2.40;1.30;;;;;;;;;;5003043;28;20029;-56
2023/03/14 09:33:17;;;;;;;12.07;3.20;;;;;;;;;;5000036;28;20543;-57
2023/03/14 09:35:42;;;;;;;2.53;1.85;;;;;;;;;;5018240;28;20523;-56
2023/03/14 09:38:08;;;;;;;3.45;1.65;;;;;;;;;;5004734;28;20541;-56
2023/03/14 09:40:37;;;;;;;4.90;2.22;;;;;;;;;;5008374;28;20073;-55
2023/03/14 09:43:03;;;;;;;6.65;2.80;;;;;;;;;;4990169;28;20042;-56
2023/03/14 09:45:32;;;;;;;3.17;1.30;;;;;;;;;;5006118;28;20042;-56
2023/03/14 09:47:58;;;;;;;3.88;1.50;;;;;;;;;;5006928;28;20052;-56
2023/03/14 09:50:25;;;;;;;5.95;1.80;;;;;;;;;;5005704;28;20029;-56
2023/03/14 09:52:56;;;;;;;7.90;1.85;;;;;;;;;;4994003;28;20507;-56
2023/03/14 09:55:22;;;;;;;5.75;1.70;;;;;;;;;;4997415;28;20046;-56
2023/03/14 09:57:57;;;;;;;3.28;0.93;;;;;;;;;;5003586;28;20049;-56
2023/03/14 10:00:27;;;;;;;4.10;1.15;;;;;;;;;;4998788;28;20040;-56
2023/03/14 10:03:11;;;;;;;3.13;1.38;;;;;;;;;;4995700;28;20034;-57
2023/03/14 10:05:37;;;;;;;3.78;1.70;;;;;;;;;;4993372;28;20065;-56
2023/03/14 10:08:03;;;;;;;5.93;2.05;;;;;;;;;;5006340;28;20104;-56
2023/03/14 10:10:28;;;;;;;5.00;1.55;;;;;;;;;;5005970;28;20088;-56
2023/03/14 10:12:59;;;;;;;9.88;1.50;;;;;;;;;;4999824;28;20038;-54
2023/03/14 10:15:30;;;;;;;6.72;1.70;;;;;;;;;;5004309;28;20065;-56
2023/03/14 10:17:58;;;;;;;2.65;1.48;;;;;;;;;;5000220;28;20040;-56
2023/03/14 10:20:32;;;;;;;4.57;1.75;;;;;;;;;;4989369;28;20042;-56
2023/03/14 10:23:06;;;;;;;5.45;2.10;;;;;;;;;;4992618;28;20547;-56
2023/03/14 10:25:34;;;;;;;3.88;2.17;;;;;;;;;;4999195;28;20149;-55
2023/03/14 10:28:01;;;;;;;3.90;1.67;;;;;;;;;;5004143;28;20044;-56
2023/03/14 10:30:43;;;;;;;3.03;1.30;;;;;;;;;;5005422;28;20061;-57
2023/03/14 10:33:18;;;;;;;3.70;1.52;;;;;;;;;;5006151;28;20042;-56
2023/03/14 10:35:44;;;;;;;4.57;1.38;;;;;;;;;;4994550;28;20038;-56
2023/03/14 10:38:15;;;;;;;4.28;1.70;;;;;;;;;;5002932;28;20092;-56
2023/03/14 10:40:49;;;;;;;4.22;1.52;;;;;;;;;;5004711;28;20519;-56
2023/03/14 10:43:19;;;;;;;3.95;1.55;;;;;;;;;;5005143;28;20411;-55
2023/03/14 10:45:52;;;;;;;4.35;1.48;;;;;;;;;;5005266;28;20038;-56
2023/03/14 10:48:21;;;;;;;2.83;1.20;;;;;;;;;;5004535;28;20057;-56
2023/03/14 10:50:57;;;;;;;5.07;1.50;;;;;;;;;;5010343;28;20030;-56
2023/03/14 10:53:23;;;;;;;3.05;1.40;;;;;;;;;;5008041;28;20042;-55
2023/03/14 10:55:49;;;;;;;4.78;1.75;;;;;;;;;;5003477;28;20399;-56
2023/03/14 10:58:25;;;;;;;5.35;2.13;;;;;;;;;;5008511;28;20040;-55
2023/03/14 11:01:17;;;;;;;4.28;1.35;;;;;;;;;;5009337;28;20042;-56
2023/03/14 11:03:52;;;;;;;3.55;1.20;;;;;;;;;;4993095;28;20068;-55
2023/03/14 11:06:55;;;;;;;6.32;1.63;;;;;;;;;;5008513;28;20121;-56
2023/03/14 11:09:29;;;;;;;2.60;1.27;;;;;;;;;;4997447;28;20038;-56
2023/03/14 11:12:05;;;;;;;4.65;1.55;;;;;;;;;;5008912;28;20121;-56
2023/03/14 11:14:36;;;;;;;3.65;1.33;;;;;;;;;;5002210;28;20088;-55
2023/03/14 11:17:16;;;;;;;3.78;1.40;;;;;;;;;;5005569;28;20025;-55
2023/03/14 11:19:51;;;;;;;7.35;1.63;;;;;;;;;;5008831;28;20038;-56
2023/03/14 11:22:41;;;;;;;4.25;1.35;;;;;;;;;;5007203;28;20069;-55
2023/03/14 11:25:06;;;;;;;3.17;1.25;;;;;;;;;;5007299;28;20053;-56
2023/03/14 11:27:43;;;;;;;3.17;1.33;;;;;;;;;;5008626;28;20042;-56
2023/03/14 11:30:46;;;;;;;3.13;1.20;;;;;;;;;;5008054;28;20092;-56
2023/03/14 11:33:20;;;;;;;3.42;1.50;;;;;;;;;;5004452;28;20585;-56
2023/03/14 11:36:06;;;;;;;5.63;1.80;;;;;;;;;;5009200;28;20521;-55
2023/03/14 11:38:41;;;;;;;4.53;1.40;;;;;;;;;;4997008;28;20479;-56
2023/03/14 11:41:29;;;;;;;5.40;1.50;;;;;;;;;;5008423;28;20141;-56
2023/03/14 11:43:57;;;;;;;2.65;1.50;;;;;;;;;;5007052;28;20070;-56
2023/03/14 11:46:27;;;;;;;3.35;1.80;;;;;;;;;;5007384;28;20052;-56
2023/03/14 11:49:30;;;;;;;9.15;3.00;;;;;;;;;;5007197;28;20526;-56
2023/03/14 11:52:00;;;;;;;2.08;0.93;;;;;;;;;;5007184;28;20037;-56
2023/03/14 11:54:38;;;;;;;1.80;1.40;;;;;;;;;;5007627;28;20061;-57
2023/03/14 11:57:10;;;;;;;6.07;1.77;;;;;;;;;;5000583;28;20065;-56
2023/03/14 11:59:39;;;;;;;4.50;1.38;;;;;;;;;;4996322;28;20034;-56
2023/03/14 12:02:19;;;;;;;3.08;1.50;;;;;;;;;;5008359;28;20030;-56
2023/03/14 12:04:57;;;;;;;1.75;0.80;;;;;;;;;;5008133;28;20146;-56
2023/03/14 12:07:35;;;;;;;5.70;1.50;;;;;;;;;;5004402;28;20042;-56
2023/03/14 12:10:02;;;;;;;4.22;2.10;;;;;;;;;;5008945;28;20049;-57
2023/03/14 12:12:30;;;;;;;4.43;1.80;;;;;;;;;;5000535;28;20490;-56
2023/03/14 12:15:01;;;;;;;2.22;1.40;;;;;;;;;;5006691;28;20058;-56
2023/03/14 12:17:43;;;;;;;6.63;2.17;;;;;;;;;;4995012;28;20050;-57
2023/03/14 12:20:14;;;;;;;5.80;1.38;;;;;;;;;;5001363;28;20030;-56
2023/03/14 12:23:05;;;;;;;8.43;2.17;;;;;;;;;;4997006;28;20667;-56
2023/03/14 12:25:32;;;;;;;8.18;1.77;;;;;;;;;;4991911;28;20034;-56
2023/03/14 12:27:58;;;;;;;6.47;2.22;;;;;;;;;;5007898;28;20076;-56
2023/03/14 12:30:27;;;;;;;7.18;1.55;;;;;;;;;;4998199;28;20704;-57
2023/03/14 12:33:16;;;;;;;7.55;1.52;;;;;;;;;;5001426;28;20590;-56
2023/03/14 12:35:43;;;;;;;8.40;3.08;;;;;;;;;;5007676;28;20525;-56
2023/03/14 12:38:29;;;;;;;4.75;2.03;;;;;;;;;;5008327;28;20034;-56
2023/03/14 12:41:15;;;;;;;2.35;1.52;;;;;;;;;;5008035;28;20128;-56
2023/03/14 12:43:41;;;;;;;3.92;1.95;;;;;;;;;;5006338;28;20726;-56
2023/03/14 12:46:27;;;;;;;5.60;3.33;;;;;;;;;;5007505;28;20034;-55
2023/03/14 12:49:04;;;;;;;14.45;5.10;;;;;;;;;;5004921;28;20030;-56
2023/03/14 12:51:36;;;;;;;9.50;3.72;;;;;;;;;;5006662;28;20042;-57
2023/03/14 12:54:24;;;;;;;6.72;2.63;;;;;;;;;;5006725;28;20061;-58
2023/03/14 12:56:55;;;;;;;9.15;3.85;;;;;;;;;;5006954;28;20037;-56
2023/03/14 12:59:47;;;;;;;6.05;3.17;;;;;;;;;;5007671;28;20022;-56
2023/03/14 13:02:21;;;;;;;6.32;2.35;;;;;;;;;;5000819;28;20065;-56
2023/03/14 13:04:51;;;;;;;5.78;2.35;;;;;;;;;;5004199;28;20042;-56
2023/03/14 13:07:33;;;;;;;6.65;3.90;;;;;;;;;;5006952;28;20047;-55
2023/03/14 13:10:05;;;;;;;7.57;2.30;;;;;;;;;;5006682;28;20049;-56
2023/03/14 13:12:41;;;;;;;3.58;2.00;;;;;;;;;;5006742;28;20042;-57
2023/03/14 13:15:30;;;;;;;8.82;2.92;;;;;;;;;;5006594;28;20037;-57
2023/03/14 13:18:02;;;;;;;2.85;1.40;;;;;;;;;;5006120;28;20045;-57
2023/03/14 13:20:35;;;;;;;22.33;3.30;;;;;;;;;;5002887;28;20030;-55
2023/03/14 13:23:00;;;;;;;2.85;1.80;;;;;;;;;;5007809;28;20156;-56
2023/03/14 13:25:31;;;;;;;4.35;1.58;;;;;;;;;;5001597;28;20525;-56
2023/03/14 13:27:57;;;;;;;3.10;1.85;;;;;;;;;;4989948;28;20069;-56
2023/03/14 13:30:26;;;;;;;7.10;2.50;;;;;;;;;;5003944;28;20259;-57
2023/03/14 13:32:53;;;;;;;7.22;2.25;;;;;;;;;;5006312;28;20026;-57
2023/03/14 13:35:39;;;;;;;1.00;0.60;;;;;;;;;;5005967;28;20052;-55
2023/03/14 13:38:04;;;;;;;2.25;0.77;;;;;;;;;;5007212;28;20252;-56
2023/03/14 13:40:34;;;;;;;2.58;1.58;;;;;;;;;;5003978;28;20594;-57
2023/03/14 13:43:11;;;;;;;7.05;1.10;;;;;;;;;;4999135;28;20523;-57
2023/03/14 13:45:54;;;;;;;0.52;0.52;;;;;;;;;;4993923;28;20125;-57
2023/03/14 13:48:20;;;;;;;8.88;1.05;;;;;;;;;;4992608;28;20565;-57
2023/03/14 13:50:51;;;;;;;1.50;0.80;;;;;;;;;;4997702;28;20836;-57
2023/03/14 13:53:17;;;;;;;1.13;0.80;;;;;;;;;;4999574;28;20419;-57
2023/03/14 13:55:42;;;;;;;1.60;0.70;;;;;;;;;;5005761;28;20117;-57
2023/03/14 13:58:20;;;;;;;0.57;0.40;;;;;;;;;;5006971;28;20038;-56
2023/03/14 14:00:54;;;;;;;2.17;0.57;;;;;;;;;;5006569;28;20037;-56
2023/03/14 14:03:19;;;;;;;1.45;0.93;;;;;;;;;;5006053;28;20128;-57
2023/03/14 14:05:45;;;;;;;5.60;2.85;;;;;;;;;;5006708;28;20513;-57
2023/03/14 14:08:12;;;;;;;3.80;1.15;;;;;;;;;;5005965;28;20030;-56
2023/03/14 14:10:38;;;;;;;1.25;0.75;;;;;;;;;;4991869;28;20041;-56
2023/03/14 14:13:08;;;;;;;1.48;0.95;;;;;;;;;;5000425;28;20073;-57
2023/03/14 14:15:40;;;;;;;1.23;0.70;;;;;;;;;;5006470;28;20037;-56
2023/03/14 14:18:09;;;;;;;3.67;1.05;;;;;;;;;;5006781;28;20038;-57
2023/03/14 14:20:39;;;;;;;5.28;1.20;;;;;;;;;;4994327;28;20021;-56
2023/03/14 14:23:09;;;;;;;2.83;1.20;;;;;;;;;;5006430;28;20024;-57
2023/03/14 14:25:35;;;;;;;5.15;1.33;;;;;;;;;;5005273;28;20030;-56
2023/03/14 14:28:22;;;;;;;8.80;2.15;;;;;;;;;;5004501;28;20034;-56
2023/03/14 14:30:59;;;;;;;3.92;1.05;;;;;;;;;;4997489;28;20038;-56
2023/03/14 14:33:24;;;;;;;8.10;1.20;;;;;;;;;;4994648;28;20156;-56
2023/03/14 14:35:55;;;;;;;4.97;1.63;;;;;;;;;;5002868;28;20046;-55
2023/03/14 14:38:21;;;;;;;8.40;1.45;;;;;;;;;;4997099;28;20517;-54
2023/03/14 14:40:54;;;;;;;10.02;1.88;;;;;;;;;;5002499;28;20100;-56
2023/03/14 14:43:26;;;;;;;4.28;1.50;;;;;;;;;;4993695;28;20025;-56
2023/03/14 14:45:53;;;;;;;5.15;2.17;;;;;;;;;;5006203;28;20037;-55
2023/03/14 14:48:22;;;;;;;7.22;1.48;;;;;;;;;;5005672;28;20037;-56
2023/03/14 14:50:49;;;;;;;15.27;1.92;;;;;;;;;;5006783;28;20595;-56